sensor_id;sensor_type;location;lat;lon;timestamp;P1;durP1;ratioP1;P2;durP2;ratioP2
20997;SDS011;10657;51.276;6.390;2023-07-29T00:00:10;5.43;;;1.98;;
20997;SDS011;10657;51.276;6.390;2023-07-29T00:02:39;7.50;;;2.35;;
20997;SDS011;10657;51.276;6.390;2023-07-29T00:05:06;5.95;;;2.00;;
20997;SDS011;10657;51.276;6.390;2023-07-29T00:07:33;5.22;;;1.92;;
20997;SDS011;10657;51.276;6.390;2023-07-29T00:10:00;5.28;;;2.13;;
20997;SDS011;10657;51.276;6.390;2023-07-29T00:12:26;7.05;;;2.28;;
20997;SDS011;10657;51.276;6.390;2023-07-29T00:14:53;3.83;;;1.73;;
20997;SDS011;10657;51.276;6.390;2023-07-29T00:17:20;4.07;;;1.80;;
20997;SDS011;10657;51.276;6.390;2023-07-29T00:19:47;4.13;;;1.83;;
20997;SDS011;10657;51.276;6.390;2023-07-29T00:22:13;4.15;;;1.70;;
20997;SDS011;10657;51.276;6.390;2023-07-29T00:24:40;5.35;;;1.73;;
20997;SDS011;10657;51.276;6.390;2023-07-29T00:27:07;4.40;;;1.52;;
20997;SDS011;10657;51.276;6.390;2023-07-29T00:29:34;3.55;;;1.60;;
20997;SDS011;10657;51.276;6.390;2023-07-29T00:32:01;7.70;;;1.80;;
20997;SDS011;10657;51.276;6.390;2023-07-29T00:34:27;7.43;;;1.92;;
20997;SDS011;10657;51.276;6.390;2023-07-29T00:36:54;4.13;;;1.80;;
20997;SDS011;10657;51.276;6.390;2023-07-29T00:39:21;4.90;;;1.85;;
20997;SDS011;10657;51.276;6.390;2023-07-29T00:41:48;4.15;;;1.92;;
20997;SDS011;10657;51.276;6.390;2023-07-29T00:44:15;4.00;;;1.70;;
20997;SDS011;10657;51.276;6.390;2023-07-29T00:46:42;7.30;;;1.60;;
20997;SDS011;10657;51.276;6.390;2023-07-29T00:49:11;6.07;;;2.03;;
20997;SDS011;10657;51.276;6.390;2023-07-29T00:51:38;4.32;;;1.73;;
20997;SDS011;10657;51.276;6.390;2023-07-29T00:54:05;3.20;;;1.50;;
20997;SDS011;10657;51.276;6.390;2023-07-29T00:56:31;5.75;;;1.75;;
20997;SDS011;10657;51.276;6.390;2023-07-29T00:58:58;4.45;;;1.95;;
20997;SDS011;10657;51.276;6.390;2023-07-29T01:01:28;4.43;;;2.00;;
20997;SDS011;10657;51.276;6.390;2023-07-29T01:03:55;4.18;;;1.95;;
20997;SDS011;10657;51.276;6.390;2023-07-29T01:11:49;5.60;;;2.00;;
20997;SDS011;10657;51.276;6.390;2023-07-29T01:14:29;4.75;;;1.70;;
20997;SDS011;10657;51.276;6.390;2023-07-29T01:17:07;4.85;;;1.80;;
20997;SDS011;10657;51.276;6.390;2023-07-29T01:22:46;6.95;;;1.98;;
20997;SDS011;10657;51.276;6.390;2023-07-29T01:25:14;4.63;;;2.00;;
20997;SDS011;10657;51.276;6.390;2023-07-29T01:27:45;4.65;;;2.08;;
20997;SDS011;10657;51.276;6.390;2023-07-29T01:30:12;4.22;;;2.05;;
20997;SDS011;10657;51.276;6.390;2023-07-29T01:35:29;4.43;;;2.15;;
20997;SDS011;10657;51.276;6.390;2023-07-29T01:38:01;4.93;;;2.10;;
20997;SDS011;10657;51.276;6.390;2023-07-29T01:40:32;5.13;;;2.10;;
20997;SDS011;10657;51.276;6.390;2023-07-29T01:43:00;6.03;;;2.10;;
20997;SDS011;10657;51.276;6.390;2023-07-29T01:45:26;4.57;;;2.10;;
20997;SDS011;10657;51.276;6.390;2023-07-29T01:47:54;5.35;;;2.03;;
20997;SDS011;10657;51.276;6.390;2023-07-29T01:50:21;5.40;;;1.90;;
20997;SDS011;10657;51.276;6.390;2023-07-29T01:52:48;4.10;;;2.00;;
20997;SDS011;10657;51.276;6.390;2023-07-29T01:55:14;6.20;;;2.20;;
20997;SDS011;10657;51.276;6.390;2023-07-29T01:57:41;4.55;;;2.20;;
20997;SDS011;10657;51.276;6.390;2023-07-29T02:00:11;8.73;;;2.17;;
20997;SDS011;10657;51.276;6.390;2023-07-29T02:02:38;6.13;;;1.92;;
20997;SDS011;10657;51.276;6.390;2023-07-29T02:05:04;6.25;;;2.08;;
20997;SDS011;10657;51.276;6.390;2023-07-29T02:07:31;4.57;;;2.30;;
20997;SDS011;10657;51.276;6.390;2023-07-29T02:09:58;5.18;;;2.35;;
20997;SDS011;10657;51.276;6.390;2023-07-29T02:12:25;4.25;;;2.00;;
20997;SDS011;10657;51.276;6.390;2023-07-29T02:14:52;4.82;;;2.22;;
20997;SDS011;10657;51.276;6.390;2023-07-29T02:17:18;4.70;;;2.33;;
20997;SDS011;10657;51.276;6.390;2023-07-29T02:19:45;4.22;;;2.10;;
20997;SDS011;10657;51.276;6.390;2023-07-29T02:22:16;5.00;;;2.33;;
20997;SDS011;10657;51.276;6.390;2023-07-29T02:24:44;10.00;;;2.25;;
20997;SDS011;10657;51.276;6.390;2023-07-29T02:27:11;6.32;;;2.45;;
20997;SDS011;10657;51.276;6.390;2023-07-29T02:29:38;4.38;;;2.13;;
20997;SDS011;10657;51.276;6.390;2023-07-29T02:32:05;4.78;;;2.08;;
20997;SDS011;10657;51.276;6.390;2023-07-29T02:34:31;6.15;;;2.40;;
20997;SDS011;10657;51.276;6.390;2023-07-29T02:36:58;5.72;;;2.70;;
20997;SDS011;10657;51.276;6.390;2023-07-29T02:39:25;6.63;;;2.60;;
20997;SDS011;10657;51.276;6.390;2023-07-29T02:41:51;6.72;;;2.50;;
20997;SDS011;10657;51.276;6.390;2023-07-29T02:44:18;6.70;;;2.78;;
20997;SDS011;10657;51.276;6.390;2023-07-29T02:46:46;5.65;;;2.50;;
20997;SDS011;10657;51.276;6.390;2023-07-29T02:49:12;6.88;;;2.70;;
20997;SDS011;10657;51.276;6.390;2023-07-29T02:51:39;5.40;;;2.70;;
20997;SDS011;10657;51.276;6.390;2023-07-29T02:54:06;5.38;;;2.97;;
20997;SDS011;10657;51.276;6.390;2023-07-29T02:56:33;6.07;;;2.83;;
20997;SDS011;10657;51.276;6.390;2023-07-29T02:59:00;6.45;;;2.85;;
20997;SDS011;10657;51.276;6.390;2023-07-29T03:01:27;7.05;;;2.38;;
20997;SDS011;10657;51.276;6.390;2023-07-29T03:03:54;5.82;;;2.92;;
20997;SDS011;10657;51.276;6.390;2023-07-29T03:06:21;7.88;;;2.75;;
20997;SDS011;10657;51.276;6.390;2023-07-29T03:08:47;5.95;;;2.70;;
20997;SDS011;10657;51.276;6.390;2023-07-29T03:11:14;7.10;;;2.95;;
20997;SDS011;10657;51.276;6.390;2023-07-29T03:13:42;5.70;;;2.60;;
20997;SDS011;10657;51.276;6.390;2023-07-29T03:16:13;5.40;;;2.58;;
20997;SDS011;10657;51.276;6.390;2023-07-29T03:18:42;5.57;;;2.40;;
20997;SDS011;10657;51.276;6.390;2023-07-29T03:21:09;7.65;;;2.70;;
20997;SDS011;10657;51.276;6.390;2023-07-29T03:23:37;6.95;;;2.83;;
20997;SDS011;10657;51.276;6.390;2023-07-29T03:26:04;9.38;;;2.53;;
20997;SDS011;10657;51.276;6.390;2023-07-29T03:28:38;7.22;;;2.65;;
20997;SDS011;10657;51.276;6.390;2023-07-29T03:31:06;8.52;;;3.03;;
20997;SDS011;10657;51.276;6.390;2023-07-29T03:33:33;9.27;;;2.67;;
20997;SDS011;10657;51.276;6.390;2023-07-29T03:36:00;6.97;;;2.35;;
20997;SDS011;10657;51.276;6.390;2023-07-29T03:38:27;5.28;;;2.15;;
20997;SDS011;10657;51.276;6.390;2023-07-29T03:40:54;6.22;;;2.25;;
20997;SDS011;10657;51.276;6.390;2023-07-29T03:43:20;5.40;;;2.42;;
20997;SDS011;10657;51.276;6.390;2023-07-29T03:45:47;5.53;;;2.55;;
20997;SDS011;10657;51.276;6.390;2023-07-29T03:48:14;6.70;;;2.83;;
20997;SDS011;10657;51.276;6.390;2023-07-29T03:50:41;8.18;;;2.90;;
20997;SDS011;10657;51.276;6.390;2023-07-29T03:53:07;4.80;;;2.20;;
20997;SDS011;10657;51.276;6.390;2023-07-29T03:55:36;7.47;;;2.60;;
20997;SDS011;10657;51.276;6.390;2023-07-29T03:58:02;6.15;;;2.33;;
20997;SDS011;10657;51.276;6.390;2023-07-29T04:00:29;5.68;;;2.50;;
20997;SDS011;10657;51.276;6.390;2023-07-29T04:02:56;6.20;;;2.70;;
20997;SDS011;10657;51.276;6.390;2023-07-29T04:05:22;7.20;;;2.75;;
20997;SDS011;10657;51.276;6.390;2023-07-29T04:07:49;6.40;;;2.70;;
20997;SDS011;10657;51.276;6.390;2023-07-29T04:10:16;8.00;;;3.00;;
20997;SDS011;10657;51.276;6.390;2023-07-29T04:12:43;7.60;;;2.97;;
20997;SDS011;10657;51.276;6.390;2023-07-29T04:15:09;5.68;;;2.92;;
20997;SDS011;10657;51.276;6.390;2023-07-29T04:17:36;6.13;;;2.83;;
20997;SDS011;10657;51.276;6.390;2023-07-29T04:20:03;9.10;;;3.00;;
20997;SDS011;10657;51.276;6.390;2023-07-29T04:22:30;6.80;;;2.90;;
20997;SDS011;10657;51.276;6.390;2023-07-29T04:24:57;8.55;;;3.15;;
20997;SDS011;10657;51.276;6.390;2023-07-29T04:27:23;7.28;;;2.75;;
20997;SDS011;10657;51.276;6.390;2023-07-29T04:29:51;6.05;;;2.72;;
20997;SDS011;10657;51.276;6.390;2023-07-29T04:32:17;8.75;;;3.03;;
20997;SDS011;10657;51.276;6.390;2023-07-29T04:34:44;8.23;;;3.88;;
20997;SDS011;10657;51.276;6.390;2023-07-29T04:37:11;7.22;;;2.80;;
20997;SDS011;10657;51.276;6.390;2023-07-29T04:39:37;5.55;;;2.83;;
20997;SDS011;10657;51.276;6.390;2023-07-29T04:42:04;6.97;;;2.70;;
20997;SDS011;10657;51.276;6.390;2023-07-29T04:44:31;6.43;;;2.90;;
20997;SDS011;10657;51.276;6.390;2023-07-29T04:46:58;6.97;;;3.10;;
20997;SDS011;10657;51.276;6.390;2023-07-29T04:49:24;6.18;;;2.90;;
20997;SDS011;10657;51.276;6.390;2023-07-29T04:51:51;7.20;;;2.97;;
20997;SDS011;10657;51.276;6.390;2023-07-29T04:54:17;6.00;;;2.58;;
20997;SDS011;10657;51.276;6.390;2023-07-29T04:56:46;7.38;;;3.10;;
20997;SDS011;10657;51.276;6.390;2023-07-29T04:59:13;5.90;;;2.92;;
20997;SDS011;10657;51.276;6.390;2023-07-29T05:01:40;6.82;;;2.80;;
20997;SDS011;10657;51.276;6.390;2023-07-29T05:04:08;6.38;;;2.80;;
20997;SDS011;10657;51.276;6.390;2023-07-29T05:06:35;6.88;;;2.53;;
20997;SDS011;10657;51.276;6.390;2023-07-29T05:09:15;9.75;;;3.00;;
20997;SDS011;10657;51.276;6.390;2023-07-29T05:11:44;7.55;;;2.88;;
20997;SDS011;10657;51.276;6.390;2023-07-29T05:14:15;6.50;;;2.92;;
20997;SDS011;10657;51.276;6.390;2023-07-29T05:16:43;7.05;;;2.97;;
20997;SDS011;10657;51.276;6.390;2023-07-29T05:19:10;6.13;;;2.75;;
20997;SDS011;10657;51.276;6.390;2023-07-29T05:21:37;5.03;;;2.42;;
20997;SDS011;10657;51.276;6.390;2023-07-29T05:24:06;6.15;;;2.47;;
20997;SDS011;10657;51.276;6.390;2023-07-29T05:26:32;6.03;;;2.20;;
20997;SDS011;10657;51.276;6.390;2023-07-29T05:29:00;6.07;;;2.40;;
20997;SDS011;10657;51.276;6.390;2023-07-29T05:31:27;5.10;;;2.15;;
20997;SDS011;10657;51.276;6.390;2023-07-29T05:33:54;5.63;;;2.25;;
20997;SDS011;10657;51.276;6.390;2023-07-29T05:36:20;6.47;;;2.45;;
20997;SDS011;10657;51.276;6.390;2023-07-29T05:38:47;5.40;;;2.40;;
20997;SDS011;10657;51.276;6.390;2023-07-29T05:41:14;7.53;;;2.70;;
20997;SDS011;10657;51.276;6.390;2023-07-29T05:43:40;5.50;;;2.55;;
20997;SDS011;10657;51.276;6.390;2023-07-29T05:46:09;6.95;;;2.40;;
20997;SDS011;10657;51.276;6.390;2023-07-29T05:48:36;6.07;;;2.72;;
20997;SDS011;10657;51.276;6.390;2023-07-29T05:51:03;6.13;;;2.25;;
20997;SDS011;10657;51.276;6.390;2023-07-29T05:53:33;5.20;;;2.42;;
20997;SDS011;10657;51.276;6.390;2023-07-29T05:55:59;5.45;;;2.10;;
20997;SDS011;10657;51.276;6.390;2023-07-29T05:58:26;7.22;;;2.40;;
20997;SDS011;10657;51.276;6.390;2023-07-29T06:00:53;6.03;;;2.10;;
20997;SDS011;10657;51.276;6.390;2023-07-29T06:03:20;7.22;;;2.15;;
20997;SDS011;10657;51.276;6.390;2023-07-29T06:05:48;7.32;;;2.58;;
20997;SDS011;10657;51.276;6.390;2023-07-29T06:08:18;8.27;;;2.25;;
20997;SDS011;10657;51.276;6.390;2023-07-29T06:10:44;5.88;;;1.92;;
20997;SDS011;10657;51.276;6.390;2023-07-29T06:13:11;5.65;;;2.00;;
20997;SDS011;10657;51.276;6.390;2023-07-29T06:15:38;7.20;;;2.50;;
20997;SDS011;10657;51.276;6.390;2023-07-29T06:18:04;4.40;;;1.88;;
20997;SDS011;10657;51.276;6.390;2023-07-29T06:20:31;6.80;;;1.80;;
20997;SDS011;10657;51.276;6.390;2023-07-29T06:22:58;8.02;;;1.80;;
20997;SDS011;10657;51.276;6.390;2023-07-29T06:25:25;3.83;;;1.65;;
20997;SDS011;10657;51.276;6.390;2023-07-29T06:27:51;5.93;;;1.65;;
20997;SDS011;10657;51.276;6.390;2023-07-29T06:30:18;7.10;;;1.70;;
20997;SDS011;10657;51.276;6.390;2023-07-29T06:32:45;5.57;;;1.60;;
20997;SDS011;10657;51.276;6.390;2023-07-29T06:35:11;5.15;;;1.70;;
20997;SDS011;10657;51.276;6.390;2023-07-29T06:37:38;4.85;;;1.83;;
20997;SDS011;10657;51.276;6.390;2023-07-29T06:40:05;5.65;;;1.70;;
20997;SDS011;10657;51.276;6.390;2023-07-29T06:42:32;6.05;;;1.77;;
20997;SDS011;10657;51.276;6.390;2023-07-29T06:44:59;5.35;;;1.70;;
20997;SDS011;10657;51.276;6.390;2023-07-29T06:47:25;4.10;;;1.70;;
20997;SDS011;10657;51.276;6.390;2023-07-29T06:49:53;5.03;;;1.70;;
20997;SDS011;10657;51.276;6.390;2023-07-29T06:52:20;4.95;;;1.83;;
20997;SDS011;10657;51.276;6.390;2023-07-29T06:54:46;4.72;;;1.88;;
20997;SDS011;10657;51.276;6.390;2023-07-29T06:57:13;5.50;;;1.90;;
20997;SDS011;10657;51.276;6.390;2023-07-29T06:59:40;4.47;;;1.80;;
20997;SDS011;10657;51.276;6.390;2023-07-29T07:02:06;5.60;;;1.67;;
20997;SDS011;10657;51.276;6.390;2023-07-29T07:04:33;4.93;;;1.70;;
20997;SDS011;10657;51.276;6.390;2023-07-29T07:07:00;4.45;;;1.67;;
20997;SDS011;10657;51.276;6.390;2023-07-29T07:09:26;5.90;;;1.60;;
20997;SDS011;10657;51.276;6.390;2023-07-29T07:11:53;4.22;;;1.65;;
20997;SDS011;10657;51.276;6.390;2023-07-29T07:14:20;4.15;;;1.67;;
20997;SDS011;10657;51.276;6.390;2023-07-29T07:16:46;4.57;;;1.70;;
20997;SDS011;10657;51.276;6.390;2023-07-29T07:19:13;4.75;;;1.63;;
20997;SDS011;10657;51.276;6.390;2023-07-29T07:21:40;3.47;;;1.55;;
20997;SDS011;10657;51.276;6.390;2023-07-29T07:24:07;5.65;;;1.50;;
20997;SDS011;10657;51.276;6.390;2023-07-29T07:26:34;6.47;;;1.48;;
20997;SDS011;10657;51.276;6.390;2023-07-29T07:29:01;3.60;;;1.50;;
20997;SDS011;10657;51.276;6.390;2023-07-29T07:31:27;5.60;;;1.67;;
20997;SDS011;10657;51.276;6.390;2023-07-29T07:33:54;3.65;;;1.55;;
20997;SDS011;10657;51.276;6.390;2023-07-29T07:36:21;4.50;;;1.92;;
20997;SDS011;10657;51.276;6.390;2023-07-29T07:38:47;4.07;;;1.58;;
20997;SDS011;10657;51.276;6.390;2023-07-29T07:41:14;6.22;;;1.60;;
20997;SDS011;10657;51.276;6.390;2023-07-29T07:43:41;3.05;;;1.35;;
20997;SDS011;10657;51.276;6.390;2023-07-29T07:46:07;3.40;;;1.40;;
20997;SDS011;10657;51.276;6.390;2023-07-29T07:48:34;5.40;;;1.70;;
20997;SDS011;10657;51.276;6.390;2023-07-29T07:51:09;3.30;;;1.30;;
20997;SDS011;10657;51.276;6.390;2023-07-29T07:53:39;4.45;;;1.50;;
20997;SDS011;10657;51.276;6.390;2023-07-29T07:56:06;4.28;;;1.80;;
20997;SDS011;10657;51.276;6.390;2023-07-29T07:58:33;5.68;;;1.70;;
20997;SDS011;10657;51.276;6.390;2023-07-29T08:01:01;4.57;;;1.65;;
20997;SDS011;10657;51.276;6.390;2023-07-29T08:03:31;3.13;;;1.10;;
20997;SDS011;10657;51.276;6.390;2023-07-29T08:05:58;4.10;;;1.20;;
20997;SDS011;10657;51.276;6.390;2023-07-29T08:08:25;4.30;;;1.20;;
20997;SDS011;10657;51.276;6.390;2023-07-29T08:10:52;2.63;;;1.15;;
20997;SDS011;10657;51.276;6.390;2023-07-29T08:13:21;3.88;;;1.77;;
20997;SDS011;10657;51.276;6.390;2023-07-29T08:15:48;3.83;;;1.67;;
20997;SDS011;10657;51.276;6.390;2023-07-29T08:18:16;3.92;;;1.20;;
20997;SDS011;10657;51.276;6.390;2023-07-29T08:23:33;3.42;;;1.10;;
20997;SDS011;10657;51.276;6.390;2023-07-29T08:26:02;2.97;;;1.40;;
20997;SDS011;10657;51.276;6.390;2023-07-29T08:28:35;4.70;;;1.50;;
20997;SDS011;10657;51.276;6.390;2023-07-29T08:31:03;3.60;;;1.40;;
20997;SDS011;10657;51.276;6.390;2023-07-29T08:33:30;4.80;;;1.48;;
20997;SDS011;10657;51.276;6.390;2023-07-29T08:35:59;4.53;;;1.55;;
20997;SDS011;10657;51.276;6.390;2023-07-29T08:38:26;3.80;;;1.45;;
20997;SDS011;10657;51.276;6.390;2023-07-29T08:46:30;2.80;;;1.40;;
20997;SDS011;10657;51.276;6.390;2023-07-29T08:48:57;4.57;;;1.50;;
20997;SDS011;10657;51.276;6.390;2023-07-29T08:51:25;3.53;;;1.30;;
20997;SDS011;10657;51.276;6.390;2023-07-29T08:53:53;4.38;;;1.40;;
20997;SDS011;10657;51.276;6.390;2023-07-29T08:56:20;3.08;;;1.30;;
20997;SDS011;10657;51.276;6.390;2023-07-29T08:58:47;4.50;;;1.33;;
20997;SDS011;10657;51.276;6.390;2023-07-29T09:01:14;3.58;;;1.35;;
20997;SDS011;10657;51.276;6.390;2023-07-29T09:03:41;6.05;;;1.48;;
20997;SDS011;10657;51.276;6.390;2023-07-29T09:06:09;4.82;;;1.70;;
20997;SDS011;10657;51.276;6.390;2023-07-29T09:08:36;5.20;;;2.10;;
20997;SDS011;10657;51.276;6.390;2023-07-29T09:11:03;3.95;;;1.70;;
20997;SDS011;10657;51.276;6.390;2023-07-29T09:13:30;4.45;;;1.88;;
20997;SDS011;10657;51.276;6.390;2023-07-29T09:15:57;4.05;;;1.70;;
20997;SDS011;10657;51.276;6.390;2023-07-29T09:18:25;4.15;;;1.80;;
20997;SDS011;10657;51.276;6.390;2023-07-29T09:20:53;4.57;;;1.45;;
20997;SDS011;10657;51.276;6.390;2023-07-29T09:23:20;4.30;;;1.70;;
20997;SDS011;10657;51.276;6.390;2023-07-29T09:25:47;3.95;;;1.70;;
20997;SDS011;10657;51.276;6.390;2023-07-29T09:28:14;4.53;;;1.63;;
20997;SDS011;10657;51.276;6.390;2023-07-29T09:30:44;9.90;;;2.00;;
20997;SDS011;10657;51.276;6.390;2023-07-29T09:33:12;3.85;;;1.52;;
20997;SDS011;10657;51.276;6.390;2023-07-29T09:35:39;3.72;;;1.50;;
20997;SDS011;10657;51.276;6.390;2023-07-29T09:38:06;4.05;;;1.70;;
20997;SDS011;10657;51.276;6.390;2023-07-29T09:40:34;3.33;;;1.48;;
20997;SDS011;10657;51.276;6.390;2023-07-29T09:43:05;4.20;;;1.60;;
20997;SDS011;10657;51.276;6.390;2023-07-29T09:45:33;3.53;;;1.50;;
20997;SDS011;10657;51.276;6.390;2023-07-29T09:48:01;4.18;;;1.75;;
20997;SDS011;10657;51.276;6.390;2023-07-29T09:50:31;4.88;;;1.80;;
20997;SDS011;10657;51.276;6.390;2023-07-29T09:52:57;5.28;;;1.90;;
20997;SDS011;10657;51.276;6.390;2023-07-29T09:55:25;3.42;;;1.65;;
20997;SDS011;10657;51.276;6.390;2023-07-29T09:57:59;4.78;;;2.03;;
20997;SDS011;10657;51.276;6.390;2023-07-29T10:00:34;4.70;;;1.70;;
20997;SDS011;10657;51.276;6.390;2023-07-29T10:03:01;6.75;;;1.90;;
20997;SDS011;10657;51.276;6.390;2023-07-29T10:05:29;4.85;;;1.55;;
20997;SDS011;10657;51.276;6.390;2023-07-29T10:07:56;4.22;;;1.63;;
20997;SDS011;10657;51.276;6.390;2023-07-29T10:10:23;5.60;;;1.77;;
20997;SDS011;10657;51.276;6.390;2023-07-29T10:12:50;2.80;;;1.23;;
20997;SDS011;10657;51.276;6.390;2023-07-29T10:15:18;3.20;;;1.20;;
20997;SDS011;10657;51.276;6.390;2023-07-29T10:17:44;4.95;;;1.60;;
20997;SDS011;10657;51.276;6.390;2023-07-29T10:20:14;7.20;;;1.77;;
20997;SDS011;10657;51.276;6.390;2023-07-29T10:22:42;5.05;;;1.27;;
20997;SDS011;10657;51.276;6.390;2023-07-29T10:25:18;3.45;;;1.38;;
20997;SDS011;10657;51.276;6.390;2023-07-29T10:30:31;3.60;;;1.50;;
20997;SDS011;10657;51.276;6.390;2023-07-29T10:33:01;4.07;;;1.45;;
20997;SDS011;10657;51.276;6.390;2023-07-29T10:35:29;4.28;;;1.38;;
20997;SDS011;10657;51.276;6.390;2023-07-29T10:37:56;3.58;;;1.50;;
20997;SDS011;10657;51.276;6.390;2023-07-29T10:40:23;3.28;;;1.30;;
20997;SDS011;10657;51.276;6.390;2023-07-29T10:43:00;6.32;;;1.40;;
20997;SDS011;10657;51.276;6.390;2023-07-29T10:45:38;3.90;;;1.40;;
20997;SDS011;10657;51.276;6.390;2023-07-29T10:48:13;2.92;;;1.27;;
20997;SDS011;10657;51.276;6.390;2023-07-29T10:53:48;3.28;;;1.38;;
20997;SDS011;10657;51.276;6.390;2023-07-29T10:56:29;2.60;;;1.23;;
20997;SDS011;10657;51.276;6.390;2023-07-29T11:01:39;5.68;;;1.40;;
20997;SDS011;10657;51.276;6.390;2023-07-29T11:09:40;3.47;;;1.30;;
20997;SDS011;10657;51.276;6.390;2023-07-29T11:12:45;2.92;;;1.27;;
20997;SDS011;10657;51.276;6.390;2023-07-29T11:15:27;3.65;;;1.48;;
20997;SDS011;10657;51.276;6.390;2023-07-29T11:17:58;3.38;;;1.35;;
20997;SDS011;10657;51.276;6.390;2023-07-29T11:20:30;4.47;;;1.40;;
20997;SDS011;10657;51.276;6.390;2023-07-29T11:22:59;3.70;;;1.40;;
20997;SDS011;10657;51.276;6.390;2023-07-29T11:25:27;4.65;;;1.60;;
20997;SDS011;10657;51.276;6.390;2023-07-29T11:27:55;6.05;;;1.60;;
20997;SDS011;10657;51.276;6.390;2023-07-29T11:30:23;3.67;;;1.40;;
20997;SDS011;10657;51.276;6.390;2023-07-29T11:32:53;4.15;;;1.70;;
20997;SDS011;10657;51.276;6.390;2023-07-29T11:35:21;4.13;;;1.42;;
20997;SDS011;10657;51.276;6.390;2023-07-29T11:37:49;3.40;;;1.30;;
20997;SDS011;10657;51.276;6.390;2023-07-29T11:40:17;2.63;;;1.33;;
20997;SDS011;10657;51.276;6.390;2023-07-29T11:42:46;3.45;;;1.30;;
20997;SDS011;10657;51.276;6.390;2023-07-29T11:45:13;4.80;;;1.85;;
20997;SDS011;10657;51.276;6.390;2023-07-29T11:47:43;4.80;;;1.77;;
20997;SDS011;10657;51.276;6.390;2023-07-29T11:50:11;3.85;;;1.58;;
20997;SDS011;10657;51.276;6.390;2023-07-29T11:52:42;4.47;;;2.10;;
20997;SDS011;10657;51.276;6.390;2023-07-29T11:55:11;4.97;;;1.90;;
20997;SDS011;10657;51.276;6.390;2023-07-29T11:57:39;3.92;;;1.52;;
20997;SDS011;10657;51.276;6.390;2023-07-29T12:00:07;3.85;;;1.40;;
20997;SDS011;10657;51.276;6.390;2023-07-29T12:02:37;4.88;;;1.90;;
20997;SDS011;10657;51.276;6.390;2023-07-29T12:05:05;2.30;;;1.00;;
20997;SDS011;10657;51.276;6.390;2023-07-29T12:07:33;3.97;;;1.58;;
20997;SDS011;10657;51.276;6.390;2023-07-29T12:10:00;3.45;;;1.50;;
20997;SDS011;10657;51.276;6.390;2023-07-29T12:12:29;4.43;;;1.70;;
20997;SDS011;10657;51.276;6.390;2023-07-29T12:14:56;3.63;;;1.50;;
20997;SDS011;10657;51.276;6.390;2023-07-29T12:17:23;4.60;;;1.77;;
20997;SDS011;10657;51.276;6.390;2023-07-29T12:19:53;5.32;;;2.00;;
20997;SDS011;10657;51.276;6.390;2023-07-29T12:22:20;3.83;;;1.40;;
20997;SDS011;10657;51.276;6.390;2023-07-29T12:24:49;4.57;;;2.00;;
20997;SDS011;10657;51.276;6.390;2023-07-29T12:27:21;5.03;;;1.63;;
20997;SDS011;10657;51.276;6.390;2023-07-29T12:29:49;3.88;;;1.77;;
20997;SDS011;10657;51.276;6.390;2023-07-29T12:32:17;5.32;;;1.85;;
20997;SDS011;10657;51.276;6.390;2023-07-29T12:34:44;4.78;;;1.75;;
20997;SDS011;10657;51.276;6.390;2023-07-29T12:37:11;5.40;;;1.80;;
20997;SDS011;10657;51.276;6.390;2023-07-29T12:39:39;4.85;;;2.00;;
20997;SDS011;10657;51.276;6.390;2023-07-29T12:42:10;7.93;;;2.10;;
20997;SDS011;10657;51.276;6.390;2023-07-29T12:44:37;4.88;;;1.70;;
20997;SDS011;10657;51.276;6.390;2023-07-29T12:47:05;4.57;;;1.75;;
20997;SDS011;10657;51.276;6.390;2023-07-29T12:49:32;6.32;;;1.85;;
20997;SDS011;10657;51.276;6.390;2023-07-29T12:51:59;7.22;;;2.17;;
20997;SDS011;10657;51.276;6.390;2023-07-29T12:54:26;4.88;;;1.90;;
20997;SDS011;10657;51.276;6.390;2023-07-29T12:56:53;4.53;;;1.60;;
20997;SDS011;10657;51.276;6.390;2023-07-29T12:59:20;4.05;;;1.60;;
20997;SDS011;10657;51.276;6.390;2023-07-29T13:01:46;5.60;;;1.92;;
20997;SDS011;10657;51.276;6.390;2023-07-29T13:04:14;3.40;;;1.30;;
20997;SDS011;10657;51.276;6.390;2023-07-29T13:06:40;4.80;;;1.70;;
20997;SDS011;10657;51.276;6.390;2023-07-29T13:09:07;4.53;;;1.83;;
20997;SDS011;10657;51.276;6.390;2023-07-29T13:11:34;5.50;;;2.05;;
20997;SDS011;10657;51.276;6.390;2023-07-29T13:14:01;6.50;;;2.22;;
20997;SDS011;10657;51.276;6.390;2023-07-29T13:16:28;7.63;;;1.98;;
20997;SDS011;10657;51.276;6.390;2023-07-29T13:18:55;4.15;;;1.77;;
20997;SDS011;10657;51.276;6.390;2023-07-29T13:21:22;7.25;;;1.80;;
20997;SDS011;10657;51.276;6.390;2023-07-29T13:23:50;5.00;;;1.90;;
20997;SDS011;10657;51.276;6.390;2023-07-29T13:26:17;4.00;;;1.70;;
20997;SDS011;10657;51.276;6.390;2023-07-29T13:28:43;4.80;;;2.00;;
20997;SDS011;10657;51.276;6.390;2023-07-29T13:31:10;4.00;;;1.95;;
20997;SDS011;10657;51.276;6.390;2023-07-29T13:33:37;5.40;;;2.08;;
20997;SDS011;10657;51.276;6.390;2023-07-29T13:36:05;4.30;;;1.80;;
20997;SDS011;10657;51.276;6.390;2023-07-29T13:38:31;6.10;;;2.22;;
20997;SDS011;10657;51.276;6.390;2023-07-29T13:40:58;4.97;;;1.83;;
20997;SDS011;10657;51.276;6.390;2023-07-29T13:43:25;4.53;;;1.75;;
20997;SDS011;10657;51.276;6.390;2023-07-29T13:45:52;4.55;;;2.10;;
20997;SDS011;10657;51.276;6.390;2023-07-29T13:48:18;3.72;;;1.58;;
20997;SDS011;10657;51.276;6.390;2023-07-29T13:50:48;6.20;;;1.90;;
20997;SDS011;10657;51.276;6.390;2023-07-29T13:53:15;4.75;;;2.08;;
20997;SDS011;10657;51.276;6.390;2023-07-29T13:55:41;4.57;;;2.17;;
20997;SDS011;10657;51.276;6.390;2023-07-29T13:58:08;5.43;;;2.28;;
20997;SDS011;10657;51.276;6.390;2023-07-29T14:00:35;3.90;;;1.73;;
20997;SDS011;10657;51.276;6.390;2023-07-29T14:03:01;4.03;;;1.70;;
20997;SDS011;10657;51.276;6.390;2023-07-29T14:05:29;4.35;;;1.75;;
20997;SDS011;10657;51.276;6.390;2023-07-29T14:07:55;4.20;;;1.75;;
20997;SDS011;10657;51.276;6.390;2023-07-29T14:10:22;4.75;;;1.80;;
20997;SDS011;10657;51.276;6.390;2023-07-29T14:12:49;4.45;;;1.70;;
20997;SDS011;10657;51.276;6.390;2023-07-29T14:15:15;4.72;;;1.98;;
20997;SDS011;10657;51.276;6.390;2023-07-29T14:17:42;3.78;;;1.55;;
20997;SDS011;10657;51.276;6.390;2023-07-29T14:20:09;3.78;;;1.60;;
20997;SDS011;10657;51.276;6.390;2023-07-29T14:22:36;5.50;;;1.50;;
20997;SDS011;10657;51.276;6.390;2023-07-29T14:25:03;3.97;;;1.65;;
20997;SDS011;10657;51.276;6.390;2023-07-29T14:27:30;5.57;;;1.90;;
20997;SDS011;10657;51.276;6.390;2023-07-29T14:29:57;4.60;;;1.58;;
20997;SDS011;10657;51.276;6.390;2023-07-29T14:32:23;4.28;;;1.90;;
20997;SDS011;10657;51.276;6.390;2023-07-29T14:34:50;4.13;;;1.55;;
20997;SDS011;10657;51.276;6.390;2023-07-29T14:37:17;4.78;;;1.60;;
20997;SDS011;10657;51.276;6.390;2023-07-29T14:39:44;4.25;;;1.80;;
20997;SDS011;10657;51.276;6.390;2023-07-29T14:42:10;6.60;;;1.90;;
20997;SDS011;10657;51.276;6.390;2023-07-29T14:44:37;5.30;;;1.60;;
20997;SDS011;10657;51.276;6.390;2023-07-29T14:47:04;6.28;;;1.90;;
20997;SDS011;10657;51.276;6.390;2023-07-29T14:49:31;4.30;;;1.77;;
20997;SDS011;10657;51.276;6.390;2023-07-29T14:51:57;4.47;;;1.70;;
20997;SDS011;10657;51.276;6.390;2023-07-29T14:54:24;4.45;;;1.80;;
20997;SDS011;10657;51.276;6.390;2023-07-29T14:56:51;4.55;;;1.88;;
20997;SDS011;10657;51.276;6.390;2023-07-29T14:59:17;4.55;;;1.70;;
20997;SDS011;10657;51.276;6.390;2023-07-29T15:01:44;7.00;;;2.15;;
20997;SDS011;10657;51.276;6.390;2023-07-29T15:04:10;4.22;;;1.85;;
20997;SDS011;10657;51.276;6.390;2023-07-29T15:06:37;4.10;;;1.73;;
20997;SDS011;10657;51.276;6.390;2023-07-29T15:09:05;4.97;;;1.70;;
20997;SDS011;10657;51.276;6.390;2023-07-29T15:11:32;3.83;;;1.50;;
20997;SDS011;10657;51.276;6.390;2023-07-29T15:13:59;6.00;;;1.70;;
20997;SDS011;10657;51.276;6.390;2023-07-29T15:16:26;3.22;;;1.30;;
20997;SDS011;10657;51.276;6.390;2023-07-29T15:18:53;4.80;;;1.55;;
20997;SDS011;10657;51.276;6.390;2023-07-29T15:21:20;4.70;;;1.45;;
20997;SDS011;10657;51.276;6.390;2023-07-29T15:23:47;3.42;;;1.50;;